»·PEaware :: AAL1416 KSNA-KGCN

AAL1416 :: KSNA-KGCN

FLIGHT INFORMATION

Flight Status: Arrived
Operator:
American Airlines
More flights by this operator :: More flights under this callsign
Pilot: Max W. (2591)
Aircraft: BOEING 737-800
(B738)
More flights by this aircraft type
Origin: KSNA John Wayne-Orange Co
United States
Destination: KGCN Grand Canyon Natl Park
United States
More flights between these airports :: More routes between these airports
Route: +MUSEL8 TRM EED GCN
File this flight plan on PilotEdge
Remarks:
Altitude:
(Current/Filed)
29,000ft
Speed:
(Current/Filed)
450kts
Departed: 11-Oct-18 01:02 PM
Arrived: 11-Oct-18 01:52 PM
Distance/Time
Traveled:
314nm/0:50
Distance/Time
To Go:
Arrived

Flight Plot

Page will automatically refresh every two minutes.

Flight plan parsing failed; only flown route is shown


Map Options




Map Legend


Flown Route
Filed Route
Departure Airport
Arrival Airport
Navaid (VOR, NDB)
Fix

Horizontal Profiles

Position Reports

Time Latitude Longitude Heading Altitude Ground
Speed
11-Oct-18 12:37 33.679335 -117.862353 116 64ft 0kts
11-Oct-18 12:38 33.679335 -117.862353 116 64ft 0kts
11-Oct-18 12:39 33.679335 -117.862353 116 64ft 0kts
11-Oct-18 12:40 33.679335 -117.862353 116 64ft 0kts
11-Oct-18 12:41 33.679335 -117.862353 116 64ft 0kts
11-Oct-18 12:42 33.679335 -117.862353 116 64ft 0kts
11-Oct-18 12:43 33.679335 -117.862353 116 64ft 0kts
11-Oct-18 12:44 33.679335 -117.862353 116 64ft 0kts
11-Oct-18 12:45 33.679335 -117.862353 116 64ft 0kts
11-Oct-18 12:46 33.679335 -117.862353 116 64ft 0kts
11-Oct-18 12:47 33.679335 -117.862353 116 64ft 0kts
11-Oct-18 12:48 33.679335 -117.862353 116 64ft 0kts
11-Oct-18 12:49 33.679335 -117.862353 116 64ft 0kts
11-Oct-18 12:50 33.679335 -117.862353 116 64ft 0kts
11-Oct-18 12:51 33.679335 -117.862353 116 64ft 0kts
11-Oct-18 12:52 33.679335 -117.862353 116 64ft 0kts
11-Oct-18 12:53 33.679335 -117.862353 116 64ft 0kts
11-Oct-18 12:54 33.679335 -117.862353 116 64ft 0kts
11-Oct-18 12:55 33.679335 -117.862353 116 64ft 0kts
11-Oct-18 12:56 33.679471 -117.862880 77 64ft 2kts
11-Oct-18 12:57 33.679232 -117.863223 27 64ft 0kts
11-Oct-18 12:58 33.679233 -117.863223 27 64ft 0kts
11-Oct-18 12:59 33.679233 -117.863223 27 64ft 0kts
11-Oct-18 13:00 33.680454 -117.862808 314 64ft 10kts
11-Oct-18 13:01 33.680532 -117.862910 311 64ft 0kts
11-Oct-18 13:02 33.680589 -117.862976 311 64ft 0kts
11-Oct-18 13:03 33.681331 -117.864510 298 64ft 25kts
11-Oct-18 13:04 33.653638 -117.881887 194 1733ft 160kts
11-Oct-18 13:05 33.593766 -117.893301 188 4553ft 267kts
11-Oct-18 13:06 33.523514 -117.875362 127 6945ft 284kts
11-Oct-18 13:07 33.517688 -117.788990 76 10467ft 309kts
11-Oct-18 13:08 33.536836 -117.686071 76 12963ft 347kts
11-Oct-18 13:09 33.557785 -117.573138 76 14545ft 355kts
11-Oct-18 13:10 33.571764 -117.453391 86 17733ft 378kts
11-Oct-18 13:11 33.577975 -117.324496 87 20602ft 400kts
11-Oct-18 13:12 33.584416 -117.188551 87 22932ft 424kts
11-Oct-18 13:13 33.590539 -117.056431 88 24670ft 434kts
11-Oct-18 13:14 33.597217 -116.908890 91 26874ft 453kts
11-Oct-18 13:15 33.603857 -116.755935 91 28816ft 468kts
11-Oct-18 13:16 33.610568 -116.594805 91 28890ft 501kts
11-Oct-18 13:17 33.617506 -116.424853 91 28862ft 516kts
11-Oct-18 13:18 33.625134 -116.252819 89 28819ft 522kts
11-Oct-18 13:19 33.649002 -116.081813 69 28821ft 531kts
11-Oct-18 13:20 33.739672 -115.944843 32 28824ft 529kts
11-Oct-18 13:21 33.861356 -115.849762 44 28826ft 532kts
11-Oct-18 13:22 33.925157 -115.724258 69 28833ft 531kts
11-Oct-18 13:23 34.028881 -115.560748 48 28918ft 533kts
11-Oct-18 13:24 34.115518 -115.434891 50 28966ft 533kts
11-Oct-18 13:25 34.191796 -115.321651 50 28911ft 533kts
11-Oct-18 13:26 34.282790 -115.186875 50 28860ft 534kts
11-Oct-18 13:27 34.377498 -115.046753 51 28859ft 545kts
11-Oct-18 13:28 34.464604 -114.895410 57 28858ft 550kts
11-Oct-18 13:29 34.564504 -114.717329 57 28865ft 550kts
11-Oct-18 13:30 34.635985 -114.589276 57 28869ft 551kts
11-Oct-18 13:31 34.721357 -114.435766 57 28868ft 551kts
11-Oct-18 13:32 34.802386 -114.289427 57 28851ft 550kts
11-Oct-18 13:33 34.886981 -114.136349 58 27613ft 543kts
11-Oct-18 13:34 34.969942 -113.985436 57 25861ft 531kts
11-Oct-18 13:35 35.050742 -113.837786 57 24105ft 522kts
11-Oct-18 13:36 35.128019 -113.696039 57 22176ft 506kts
11-Oct-18 13:37 35.202139 -113.554954 60 20171ft 484kts
11-Oct-18 13:38 35.268811 -113.417823 60 18174ft 462kts
11-Oct-18 13:39 35.331790 -113.288143 60 16204ft 443kts
11-Oct-18 13:40 35.393093 -113.161483 60 14198ft 425kts
11-Oct-18 13:41 35.451536 -113.039727 60 12195ft 407kts
11-Oct-18 13:42 35.504920 -112.927572 60 10709ft 340kts
11-Oct-18 13:43 35.549108 -112.834872 60 9843ft 305kts
11-Oct-18 13:44 35.591326 -112.746035 60 9003ft 302kts
11-Oct-18 13:45 35.633820 -112.656806 60 9004ft 302kts
11-Oct-18 13:46 35.668827 -112.568978 69 9007ft 299kts
11-Oct-18 13:47 35.695938 -112.482808 70 9008ft 255kts
11-Oct-18 13:48 35.720965 -112.403837 70 9050ft 230kts
11-Oct-18 13:49 35.761956 -112.348046 41 9012ft 224kts
11-Oct-18 13:50 35.807911 -112.298982 40 9009ft 223kts
11-Oct-18 13:51 35.854719 -112.249768 40 8861ft 212kts
11-Oct-18 13:52 35.894055 -112.208399 40 7909ft 172kts
11-Oct-18 13:53 35.930032 -112.170584 41 6993ft 168kts
11-Oct-18 13:54 35.956530 -112.142420 56 6607ft 28kts
11-Oct-18 13:55 35.959448 -112.137661 40 6607ft 22kts

Navigation Log

Ident Type
Flight plan parsing failed, navigation log unavailable